createdAt,value
2017-02-17T00:00:50.074Z,-4.92
2017-02-17T00:02:00.769Z,-4.94
2017-02-17T00:03:11.471Z,-4.9
2017-02-17T00:04:22.174Z,-4.87
2017-02-17T00:05:32.876Z,-4.91
2017-02-17T00:06:43.588Z,-4.88
2017-02-17T00:07:54.291Z,-4.8
2017-02-17T00:09:04.986Z,-4.88
2017-02-17T00:10:15.290Z,-4.91
2017-02-17T00:11:25.985Z,-4.91
2017-02-17T00:12:36.675Z,-4.83
2017-02-17T00:13:47.372Z,-4.92
2017-02-17T00:14:58.074Z,-4.83
2017-02-17T00:16:09.164Z,-4.88
2017-02-17T00:17:19.893Z,-4.81
2017-02-17T00:18:30.584Z,-4.77
2017-02-17T00:19:41.284Z,-4.8
2017-02-17T00:20:52.003Z,-4.81
2017-02-17T00:22:02.292Z,-4.9
2017-02-17T00:23:12.219Z,-4.81
2017-02-17T00:24:22.909Z,-4.94
2017-02-17T00:25:33.606Z,-4.92
2017-02-17T00:26:44.320Z,-4.84
2017-02-17T00:27:55.027Z,-4.88
2017-02-17T00:29:05.736Z,-4.94
2017-02-17T00:30:16.450Z,-4.92
2017-02-17T00:31:26.752Z,-4.9
2017-02-17T00:32:37.486Z,-4.92
2017-02-17T00:33:48.191Z,-4.84
2017-02-17T00:34:58.894Z,-4.91
2017-02-17T00:36:09.183Z,-4.77
2017-02-17T00:37:19.479Z,-4.84
2017-02-17T00:38:30.168Z,-4.87
2017-02-17T00:39:40.865Z,-4.87
2017-02-17T00:40:51.566Z,-4.73
2017-02-17T00:42:02.269Z,-4.73
2017-02-17T00:43:12.987Z,-4.71
2017-02-17T00:44:23.675Z,-4.63
2017-02-17T00:45:34.372Z,-4.53
2017-02-17T00:46:45.084Z,-4.45
2017-02-17T00:47:55.796Z,-4.4
2017-02-17T00:49:06.533Z,-4.23
2017-02-17T00:50:16.828Z,-4.16
2017-02-17T00:51:27.526Z,-4.17
2017-02-17T00:52:38.224Z,-4.12
2017-02-17T00:53:48.913Z,-4.09
2017-02-17T00:54:59.612Z,-4.09
2017-02-17T00:56:09.938Z,-4.06
2017-02-17T00:57:20.641Z,-4.02
2017-02-17T00:58:30.943Z,-4.05
2017-02-17T00:59:41.658Z,-4.01
2017-02-17T01:00:52.355Z,-3.9
2017-02-17T01:02:03.068Z,-4.01
2017-02-17T01:03:13.377Z,-3.95
2017-02-17T01:04:24.097Z,-4.09
2017-02-17T01:05:34.831Z,-4.09
2017-02-17T01:06:45.545Z,-4.22
2017-02-17T01:07:56.247Z,-4.23
2017-02-17T01:09:06.952Z,-4.2
2017-02-17T01:10:17.244Z,-4.26
2017-02-17T01:11:27.955Z,-4.33
2017-02-17T01:12:38.680Z,-4.4
2017-02-17T01:13:49.384Z,-4.44
2017-02-17T01:15:00.069Z,-4.33
2017-02-17T01:16:10.362Z,-4.3
2017-02-17T01:17:21.081Z,-4.33
2017-02-17T01:18:31.780Z,-4.27
2017-02-17T01:19:42.496Z,-4.3
2017-02-17T01:20:52.804Z,-4.35
2017-02-17T01:22:03.502Z,-4.31
2017-02-17T01:23:13.415Z,-4.4
2017-02-17T01:24:23.726Z,-4.47
2017-02-17T01:25:34.451Z,-4.44
2017-02-17T01:26:45.146Z,-4.38
2017-02-17T01:27:55.840Z,-4.41
2017-02-17T01:29:06.552Z,-4.59
2017-02-17T01:30:16.881Z,-4.51
2017-02-17T01:31:27.576Z,-4.56
2017-02-17T01:32:38.259Z,-4.61
2017-02-17T01:33:48.978Z,-4.67
2017-02-17T01:34:59.677Z,-4.73
2017-02-17T01:36:10.385Z,-4.67
2017-02-17T01:37:20.710Z,-4.67
2017-02-17T01:38:31.418Z,-4.71
2017-02-17T01:39:42.130Z,-4.7
2017-02-17T01:40:52.825Z,-4.76
2017-02-17T01:42:03.545Z,-4.74
2017-02-17T01:43:13.837Z,-4.88
2017-02-17T01:44:24.557Z,-4.9
2017-02-17T01:45:34.864Z,-4.92
2017-02-17T01:46:45.563Z,-4.87
2017-02-17T01:47:56.254Z,-4.98
2017-02-17T01:49:06.954Z,-5.01
2017-02-17T01:50:17.252Z,-5.06
2017-02-17T01:51:27.962Z,-5.08
2017-02-17T01:52:38.663Z,-5.19
2017-02-17T01:53:49.358Z,-5.06
2017-02-17T01:55:00.053Z,-5.12
2017-02-17T01:56:10.378Z,-5.17
2017-02-17T01:57:21.069Z,-5.19
2017-02-17T01:58:31.375Z,-5.19
2017-02-17T01:59:42.094Z,-5.28
2017-02-17T02:00:52.786Z,-5.23
2017-02-17T02:02:03.093Z,-5.39
2017-02-17T02:03:13.377Z,-5.3
2017-02-17T02:04:24.096Z,-5.31
2017-02-17T02:05:34.798Z,-5.3
2017-02-17T02:06:45.498Z,-5.38
2017-02-17T02:07:56.189Z,-5.35
2017-02-17T02:09:06.900Z,-5.39
2017-02-17T02:10:17.198Z,-5.31
2017-02-17T02:11:27.919Z,-5.31
2017-02-17T02:12:38.612Z,-5.39
2017-02-17T02:13:49.309Z,-5.31
2017-02-17T02:14:59.999Z,-5.31
2017-02-17T02:16:10.722Z,-5.27
2017-02-17T02:17:21.034Z,-5.27
2017-02-17T02:18:31.732Z,-5.19
2017-02-17T02:19:42.420Z,-5.25
2017-02-17T02:20:52.754Z,-5.25
2017-02-17T02:22:03.458Z,-5.3
2017-02-17T02:23:13.747Z,-5.27
2017-02-17T02:24:24.454Z,-5.27
2017-02-17T02:25:34.756Z,-5.13
2017-02-17T02:26:45.475Z,-5.09
2017-02-17T02:27:56.172Z,-5.17
2017-02-17T02:29:06.877Z,-5.1
2017-02-17T02:30:17.229Z,-5.17
2017-02-17T02:31:27.946Z,-5.09
2017-02-17T02:32:38.659Z,-5.12
2017-02-17T02:33:49.374Z,-5.2
2017-02-17T02:35:00.069Z,-5.1
2017-02-17T02:36:10.766Z,-5.1
2017-02-17T02:37:21.477Z,-5.09
2017-02-17T02:38:32.199Z,-5.09
2017-02-17T02:39:42.895Z,-5.1
2017-02-17T02:40:53.607Z,-5.09
2017-02-17T02:42:04.315Z,-5.06
2017-02-17T02:43:14.613Z,-5.09
2017-02-17T02:44:25.318Z,-4.92
2017-02-17T02:45:36.025Z,-4.91
2017-02-17T02:46:46.724Z,-5.02
2017-02-17T02:47:57.426Z,-4.9
2017-02-17T02:49:08.116Z,-4.87
2017-02-17T02:50:18.831Z,-4.88
2017-02-17T02:51:29.128Z,-4.8
2017-02-17T02:52:39.826Z,-4.74
2017-02-17T02:53:50.526Z,-4.63
2017-02-17T02:55:00.850Z,-4.65
2017-02-17T02:56:11.542Z,-4.56
2017-02-17T02:57:22.238Z,-4.52
2017-02-17T02:58:32.960Z,-4.51
2017-02-17T02:59:43.659Z,-4.51
2017-02-17T03:00:54.353Z,-4.42
2017-02-17T03:02:05.064Z,-4.41
2017-02-17T03:03:15.764Z,-4.53
2017-02-17T03:04:25.652Z,-4.45
2017-02-17T03:05:36.355Z,-4.44
2017-02-17T03:06:47.056Z,-4.52
2017-02-17T03:07:57.744Z,-4.58
2017-02-17T03:09:08.444Z,-4.58
2017-02-17T03:10:19.132Z,-4.56
2017-02-17T03:11:29.820Z,-4.56
2017-02-17T03:12:40.517Z,-4.61
2017-02-17T03:13:51.241Z,-4.59
2017-02-17T03:15:01.970Z,-4.69
2017-02-17T03:16:12.280Z,-4.67
2017-02-17T03:17:22.598Z,-4.77
2017-02-17T03:18:32.918Z,-4.76
2017-02-17T03:19:43.629Z,-4.81
2017-02-17T03:20:54.339Z,-4.9
2017-02-17T03:22:05.038Z,-4.88
2017-02-17T03:23:14.540Z,-4.83
2017-02-17T03:24:25.254Z,-4.83
2017-02-17T03:25:35.963Z,-4.87
2017-02-17T03:26:46.674Z,-4.87
2017-02-17T03:27:57.380Z,-4.81
2017-02-17T03:29:08.086Z,-4.8
2017-02-17T03:30:18.775Z,-4.81
2017-02-17T03:31:29.061Z,-4.74
2017-02-17T03:32:39.742Z,-4.81
2017-02-17T03:33:50.471Z,-4.77
2017-02-17T03:35:01.172Z,-4.9
2017-02-17T03:36:11.937Z,-4.94
2017-02-17T03:37:22.254Z,-5
2017-02-17T03:38:32.946Z,-5.05
2017-02-17T03:39:43.651Z,-5.12
2017-02-17T03:40:54.353Z,-5.01
2017-02-17T03:42:05.074Z,-5.1
2017-02-17T03:43:15.361Z,-5.1
2017-02-17T03:44:26.055Z,-5.09
2017-02-17T03:45:35.977Z,-5.23
2017-02-17T03:46:46.292Z,-5.19
2017-02-17T03:47:56.976Z,-5.2
2017-02-17T03:49:07.685Z,-5.17
2017-02-17T03:50:17.195Z,-5.16
2017-02-17T03:51:27.894Z,-5.19
2017-02-17T03:52:38.603Z,-5.13
2017-02-17T03:53:49.302Z,-5.3
2017-02-17T03:54:59.986Z,-5.2
2017-02-17T03:56:10.692Z,-5.19
2017-02-17T03:57:21.386Z,-5.25
2017-02-17T03:58:31.709Z,-5.28
2017-02-17T03:59:42.393Z,-5.35
2017-02-17T04:00:52.290Z,-5.34
2017-02-17T04:02:03.020Z,-5.32
2017-02-17T04:03:13.329Z,-5.35
2017-02-17T04:04:24.035Z,-5.28
2017-02-17T04:05:34.752Z,-5.38
2017-02-17T04:06:45.470Z,-5.41
2017-02-17T04:07:56.160Z,-5.35
2017-02-17T04:09:06.870Z,-5.28
2017-02-17T04:10:17.573Z,-5.38
2017-02-17T04:11:28.529Z,-5.25
2017-02-17T04:12:39.243Z,-5.27
2017-02-17T04:13:49.968Z,-5.27
2017-02-17T04:15:00.662Z,-5.31
2017-02-17T04:16:11.006Z,-5.32
2017-02-17T04:17:21.315Z,-5.37
2017-02-17T04:18:32.006Z,-5.35
2017-02-17T04:19:42.702Z,-5.41
2017-02-17T04:20:53.408Z,-5.27
2017-02-17T04:22:04.108Z,-5.35
2017-02-17T04:23:14.414Z,-5.34
2017-02-17T04:24:25.135Z,-5.34
2017-02-17T04:25:35.826Z,-5.39
2017-02-17T04:26:46.527Z,-5.41
2017-02-17T04:27:57.251Z,-5.45
2017-02-17T04:29:07.952Z,-5.45
2017-02-17T04:30:17.891Z,-5.46
2017-02-17T04:31:28.581Z,-5.45
2017-02-17T04:32:39.268Z,-5.59
2017-02-17T04:33:49.984Z,-5.58
2017-02-17T04:35:00.677Z,-5.59
2017-02-17T04:36:11.382Z,-5.66
2017-02-17T04:37:22.078Z,-5.7
2017-02-17T04:38:32.798Z,-5.74
2017-02-17T04:39:43.477Z,-5.78
2017-02-17T04:40:54.167Z,-5.82
2017-02-17T04:42:04.861Z,-5.82
2017-02-17T04:43:15.179Z,-5.78
2017-02-17T04:44:25.886Z,-5.89
2017-02-17T04:45:36.197Z,-6
2017-02-17T04:46:46.900Z,-5.74
2017-02-17T04:47:57.618Z,-5.82
2017-02-17T04:49:08.311Z,-5.81
2017-02-17T04:50:18.621Z,-5.77
2017-02-17T04:51:29.324Z,-5.82
2017-02-17T04:52:40.010Z,-5.84
2017-02-17T04:53:50.716Z,-5.91
2017-02-17T04:55:01.420Z,-5.94
2017-02-17T04:56:12.113Z,-6.05
2017-02-17T04:57:21.998Z,-6.09
2017-02-17T04:58:32.703Z,-6.03
2017-02-17T04:59:43.408Z,-6.02
2017-02-17T05:00:54.091Z,-6.16
2017-02-17T05:02:04.819Z,-6.13
2017-02-17T05:03:15.143Z,-6.3
2017-02-17T05:04:25.857Z,-6.33
2017-02-17T05:05:36.545Z,-6.33
2017-02-17T05:06:47.234Z,-6.27
2017-02-17T05:07:57.950Z,-6.33
2017-02-17T05:09:08.652Z,-6.27
2017-02-17T05:10:19.354Z,-6.3
2017-02-17T05:11:30.045Z,-6.33
2017-02-17T05:12:40.724Z,-6.34
2017-02-17T05:13:51.429Z,-6.34
2017-02-17T05:15:02.159Z,-6.33
2017-02-17T05:16:12.857Z,-6.52
2017-02-17T05:17:23.540Z,-6.54
2017-02-17T05:18:34.249Z,-6.66
2017-02-17T05:19:44.559Z,-6.75
2017-02-17T05:20:55.242Z,-6.71
2017-02-17T05:22:05.533Z,-6.68
2017-02-17T05:23:15.817Z,-6.71
2017-02-17T05:24:26.520Z,-6.71
2017-02-17T05:25:37.212Z,-6.67
2017-02-17T05:26:47.919Z,-6.66
2017-02-17T05:27:58.622Z,-6.58
2017-02-17T05:29:09.314Z,-6.56
2017-02-17T05:30:20.015Z,-6.63
2017-02-17T05:31:30.702Z,-6.51
2017-02-17T05:32:41.010Z,-6.56
2017-02-17T05:33:51.728Z,-6.54
2017-02-17T05:35:02.425Z,-6.49
2017-02-17T05:36:13.130Z,-6.51
2017-02-17T05:37:23.826Z,-6.33
2017-02-17T05:38:34.544Z,-6.26
2017-02-17T05:39:45.270Z,-6.13
2017-02-17T05:40:55.572Z,-6.02
2017-02-17T05:42:05.887Z,-6.09
2017-02-17T05:43:16.189Z,-6.06
2017-02-17T05:44:26.489Z,-6
2017-02-17T05:45:37.186Z,-6.05
2017-02-17T05:46:47.903Z,-5.94
2017-02-17T05:47:58.608Z,-5.99
2017-02-17T05:49:09.313Z,-6
2017-02-17T05:50:20.014Z,-5.94
2017-02-17T05:51:30.718Z,-5.94
2017-02-17T05:52:41.025Z,-5.97
2017-02-17T05:53:51.741Z,-5.91
2017-02-17T05:55:02.437Z,-5.84
2017-02-17T05:56:12.747Z,-5.84
2017-02-17T05:57:23.094Z,-5.71
2017-02-17T05:58:33.399Z,-5.68
2017-02-17T05:59:44.115Z,-5.71
2017-02-17T06:00:54.814Z,-5.7
2017-02-17T06:02:05.528Z,-5.66
2017-02-17T06:03:15.804Z,-5.64
2017-02-17T06:04:25.717Z,-5.59
2017-02-17T06:05:36.415Z,-5.66
2017-02-17T06:06:47.120Z,-5.6
2017-02-17T06:07:57.439Z,-5.66
2017-02-17T06:09:08.139Z,-5.63
2017-02-17T06:10:18.443Z,-5.59
2017-02-17T06:11:29.165Z,-5.55
2017-02-17T06:12:39.855Z,-5.56
2017-02-17T06:13:50.575Z,-5.48
2017-02-17T06:15:00.885Z,-5.5
2017-02-17T06:16:11.219Z,-5.55
2017-02-17T06:17:21.919Z,-5.41
2017-02-17T06:18:32.614Z,-5.3
2017-02-17T06:19:43.321Z,-5.39
2017-02-17T06:20:54.022Z,-5.3
2017-02-17T06:22:04.311Z,-5.31
2017-02-17T06:23:14.615Z,-5.3
2017-02-17T06:24:25.316Z,-5.27
2017-02-17T06:25:36.017Z,-5.27
2017-02-17T06:26:46.739Z,-5.27
2017-02-17T06:27:57.433Z,-5.3
2017-02-17T06:29:08.138Z,-5.3
2017-02-17T06:30:18.040Z,-5.27
2017-02-17T06:31:28.365Z,-5.34
2017-02-17T06:32:39.069Z,-5.31
2017-02-17T06:33:49.772Z,-5.27
2017-02-17T06:35:00.069Z,-5.32
2017-02-17T06:36:10.362Z,-5.38
2017-02-17T06:37:20.273Z,-5.39
2017-02-17T06:38:30.993Z,-5.39
2017-02-17T06:39:41.295Z,-5.41
2017-02-17T06:40:52.010Z,-5.41
2017-02-17T06:42:02.723Z,-5.41
2017-02-17T06:43:13.427Z,-5.53
2017-02-17T06:44:24.114Z,-5.49
2017-02-17T06:45:34.816Z,-5.55
2017-02-17T06:46:45.116Z,-5.52
2017-02-17T06:47:55.843Z,-5.52
2017-02-17T06:49:06.548Z,-5.6
2017-02-17T06:50:16.849Z,-5.56
2017-02-17T06:51:27.546Z,-5.59
2017-02-17T06:52:38.245Z,-5.55
2017-02-17T06:53:48.935Z,-5.6
2017-02-17T06:54:59.633Z,-5.59
2017-02-17T06:56:10.159Z,-5.55
2017-02-17T06:57:20.872Z,-5.56
2017-02-17T06:58:31.577Z,-5.56
2017-02-17T06:59:42.271Z,-5.67
2017-02-17T07:00:52.988Z,-5.63
2017-02-17T07:02:03.690Z,-5.67
2017-02-17T07:03:14.391Z,-5.63
2017-02-17T07:04:25.094Z,-5.76
2017-02-17T07:05:35.800Z,-5.66
2017-02-17T07:06:46.481Z,-5.66
2017-02-17T07:07:57.196Z,-5.68
2017-02-17T07:09:07.885Z,-5.67
2017-02-17T07:10:17.389Z,-5.66
2017-02-17T07:11:28.093Z,-5.73
2017-02-17T07:12:38.816Z,-5.77
2017-02-17T07:13:49.504Z,-5.81
2017-02-17T07:14:59.833Z,-5.77
2017-02-17T07:16:10.142Z,-5.82
2017-02-17T07:17:20.440Z,-5.82
2017-02-17T07:18:31.135Z,-5.87
2017-02-17T07:19:41.055Z,-5.84
2017-02-17T07:20:51.351Z,-5.91
2017-02-17T07:22:02.073Z,-5.88
2017-02-17T07:23:12.775Z,-5.82
2017-02-17T07:24:23.116Z,-5.82
2017-02-17T07:25:33.815Z,-5.78
2017-02-17T07:26:44.126Z,-5.82
2017-02-17T07:27:54.815Z,-5.82
2017-02-17T07:29:05.506Z,-5.76
2017-02-17T07:30:16.215Z,-5.81
2017-02-17T07:31:26.919Z,-5.81
2017-02-17T07:32:37.635Z,-5.76
2017-02-17T07:33:48.324Z,-5.77
2017-02-17T07:34:59.023Z,-5.82
2017-02-17T07:36:09.770Z,-5.73
2017-02-17T07:37:20.470Z,-5.84
2017-02-17T07:38:31.202Z,-5.78
2017-02-17T07:39:41.909Z,-5.81
2017-02-17T07:40:52.599Z,-5.77
2017-02-17T07:42:03.323Z,-5.7
2017-02-17T07:43:13.630Z,-5.68
2017-02-17T07:44:23.539Z,-5.66
2017-02-17T07:45:34.229Z,-5.58
2017-02-17T07:46:44.928Z,-5.6
2017-02-17T07:47:55.643Z,-5.56
2017-02-17T07:49:06.338Z,-5.58
2017-02-17T07:50:16.648Z,-5.63
2017-02-17T07:51:27.351Z,-5.52
2017-02-17T07:52:38.045Z,-5.52
2017-02-17T07:53:48.739Z,-5.56
2017-02-17T07:54:59.460Z,-5.48
2017-02-17T07:56:09.762Z,-5.48
2017-02-17T07:57:20.461Z,-5.43
2017-02-17T07:58:31.159Z,-5.45
2017-02-17T07:59:41.848Z,-5.41
2017-02-17T08:00:52.563Z,-5.32
2017-02-17T08:02:03.245Z,-5.3
2017-02-17T08:03:13.539Z,-5.34
2017-02-17T08:04:24.234Z,-5.28
2017-02-17T08:05:34.923Z,-5.21
2017-02-17T08:06:45.244Z,-5.28
2017-02-17T08:07:55.942Z,-5.32
2017-02-17T08:09:06.645Z,-5.23
2017-02-17T08:10:16.547Z,-5.13
2017-02-17T08:11:27.251Z,-5.12
2017-02-17T08:12:37.948Z,-5.01
2017-02-17T08:13:48.636Z,-4.92
2017-02-17T08:14:59.333Z,-4.84
2017-02-17T08:16:09.643Z,-4.97
2017-02-17T08:17:20.353Z,-5
2017-02-17T08:18:31.060Z,-4.88
2017-02-17T08:19:41.754Z,-5.02
2017-02-17T08:20:52.443Z,-4.95
2017-02-17T08:22:03.161Z,-4.95
2017-02-17T08:23:13.074Z,-4.97
2017-02-17T08:24:23.782Z,-4.84
2017-02-17T08:25:34.526Z,-4.9
2017-02-17T08:26:45.231Z,-4.87
2017-02-17T08:27:55.929Z,-4.88
2017-02-17T08:29:06.651Z,-4.98
2017-02-17T08:30:16.968Z,-4.9
2017-02-17T08:31:27.656Z,-4.91
2017-02-17T08:32:38.372Z,-4.88
2017-02-17T08:33:49.082Z,-4.87
2017-02-17T08:34:59.787Z,-4.77
2017-02-17T08:36:10.113Z,-4.67
2017-02-17T08:37:20.832Z,-4.52
2017-02-17T08:38:31.523Z,-4.51
2017-02-17T08:39:42.243Z,-4.4
2017-02-17T08:40:52.554Z,-4.31
2017-02-17T08:42:03.242Z,-4.33
2017-02-17T08:43:13.936Z,-4.23
2017-02-17T08:44:24.639Z,-4.14
2017-02-17T08:45:35.330Z,-4.08
2017-02-17T08:46:46.031Z,-3.98
2017-02-17T08:47:56.733Z,-3.96
2017-02-17T08:49:07.454Z,-3.98
2017-02-17T08:50:17.791Z,-3.91
2017-02-17T08:51:28.506Z,-3.81
2017-02-17T08:52:38.806Z,-3.81
2017-02-17T08:53:49.510Z,-3.78
2017-02-17T08:55:00.207Z,-3.9
2017-02-17T08:56:10.503Z,-3.91
2017-02-17T08:57:21.206Z,-3.85
2017-02-17T08:58:31.497Z,-3.71
2017-02-17T08:59:41.803Z,-3.64
2017-02-17T09:00:52.519Z,-3.5
2017-02-17T09:02:03.221Z,-3.37
2017-02-17T09:03:13.127Z,-3.2
2017-02-17T09:04:23.851Z,-3.2
2017-02-17T09:05:34.565Z,-3.09
2017-02-17T09:06:45.271Z,-2.96
2017-02-17T09:07:55.972Z,-2.87
2017-02-17T09:09:06.674Z,-2.81
2017-02-17T09:10:17.376Z,-2.78
2017-02-17T09:11:28.075Z,-2.68
2017-02-17T09:12:38.766Z,-2.54
2017-02-17T09:13:49.482Z,-2.52
2017-02-17T09:15:00.189Z,-2.39
2017-02-17T09:16:10.492Z,-2.4
2017-02-17T09:17:21.183Z,-2.44
2017-02-17T09:18:31.489Z,-2.57
2017-02-17T09:19:42.195Z,-2.58
2017-02-17T09:20:52.900Z,-2.65
2017-02-17T09:22:03.202Z,-2.57
2017-02-17T09:23:12.703Z,-2.52
2017-02-17T09:24:23.009Z,-2.73
2017-02-17T09:25:33.710Z,-2.87
2017-02-17T09:26:44.414Z,-3.02
2017-02-17T09:27:55.123Z,-3.11
2017-02-17T09:29:05.826Z,-3.07
2017-02-17T09:30:16.539Z,-3.08
2017-02-17T09:31:26.883Z,-3.02
2017-02-17T09:32:37.588Z,-3.2
2017-02-17T09:33:48.286Z,-3.19
2017-02-17T09:34:58.195Z,-3.17
2017-02-17T09:36:08.899Z,-3.15
2017-02-17T09:37:19.615Z,-3.14
2017-02-17T09:38:29.931Z,-3.17
2017-02-17T09:39:40.655Z,-3.15
2017-02-17T09:40:51.372Z,-3.32
2017-02-17T09:42:01.688Z,-3.38
2017-02-17T09:43:11.640Z,-3.37
2017-02-17T09:44:22.353Z,-3.38
2017-02-17T09:45:33.054Z,-3.47
2017-02-17T09:46:43.783Z,-3.4
2017-02-17T09:47:54.478Z,-3.4
2017-02-17T09:49:05.193Z,-3.46
2017-02-17T09:50:15.902Z,-3.36
2017-02-17T09:51:26.630Z,-3.27
2017-02-17T09:52:37.337Z,-3.26
2017-02-17T09:53:48.049Z,-3.22
2017-02-17T09:54:58.745Z,-3.14
2017-02-17T09:56:09.047Z,-3.12
2017-02-17T09:57:19.360Z,-3.01
2017-02-17T09:58:29.660Z,-2.9
2017-02-17T09:59:40.359Z,-2.73
2017-02-17T10:00:50.660Z,-2.68
2017-02-17T10:02:01.359Z,-2.65
2017-02-17T10:03:12.082Z,-2.63
2017-02-17T10:04:22.781Z,-2.65
2017-02-17T10:05:33.491Z,-2.51
2017-02-17T10:06:44.198Z,-2.44
2017-02-17T10:07:54.903Z,-2.5
2017-02-17T10:09:05.607Z,-2.32
2017-02-17T10:10:15.908Z,-2.25
2017-02-17T10:11:26.215Z,-2.22
2017-02-17T10:12:36.925Z,-2.26
2017-02-17T10:13:47.236Z,-2.2
2017-02-17T10:14:57.927Z,-2.39
2017-02-17T10:16:08.652Z,-2.34
2017-02-17T10:17:19.354Z,-2.33
2017-02-17T10:18:30.043Z,-2.32
2017-02-17T10:19:40.759Z,-2.17
2017-02-17T10:20:51.489Z,-1.99
2017-02-17T10:22:02.217Z,-2.04
2017-02-17T10:23:12.929Z,-2.02
2017-02-17T10:24:22.842Z,-1.97
2017-02-17T10:25:32.760Z,-1.96
2017-02-17T10:26:43.470Z,-1.97
2017-02-17T10:27:53.386Z,-1.94
2017-02-17T10:29:04.111Z,-2.15
2017-02-17T10:30:14.810Z,-2.17
2017-02-17T10:31:25.133Z,-2.2
2017-02-17T10:32:35.828Z,-2.22
2017-02-17T10:33:46.536Z,-2.17
2017-02-17T10:34:57.263Z,-2.22
2017-02-17T10:36:07.991Z,-2.23
2017-02-17T10:37:18.702Z,-2.1
2017-02-17T10:38:29.415Z,-2.04
2017-02-17T10:39:40.140Z,-1.9
2017-02-17T10:40:50.853Z,-1.75
2017-02-17T10:42:01.607Z,-1.68
2017-02-17T10:43:12.332Z,-1.51
2017-02-17T10:44:22.688Z,-1.45
2017-02-17T10:45:33.386Z,-1.39
2017-02-17T10:46:44.126Z,-1.27
2017-02-17T10:47:54.850Z,-1.32
2017-02-17T10:49:05.556Z,-1.29
2017-02-17T10:50:16.282Z,-1.22
2017-02-17T10:51:26.975Z,-1.09
2017-02-17T10:52:37.721Z,-0.97
2017-02-17T10:53:48.425Z,-0.84
2017-02-17T10:54:58.768Z,-0.78
2017-02-17T10:56:09.472Z,-0.69
2017-02-17T10:57:20.183Z,-0.59
2017-02-17T10:58:30.881Z,-0.53
2017-02-17T10:59:41.597Z,-0.41
2017-02-17T11:00:52.301Z,-0.39
2017-02-17T11:02:02.631Z,-0.3
2017-02-17T11:03:13.337Z,-0.1
2017-02-17T11:04:24.041Z,0.08
2017-02-17T11:05:33.962Z,0.55
2017-02-17T11:06:44.654Z,0.82
2017-02-17T11:07:55.367Z,1.25
2017-02-17T11:09:06.075Z,1.71
2017-02-17T11:10:15.978Z,2.03
2017-02-17T11:11:26.691Z,2.54
2017-02-17T11:12:37.396Z,2.87
2017-02-17T11:13:48.105Z,3.19
2017-02-17T11:14:58.116Z,3.55
2017-02-17T11:16:08.418Z,3.99
2017-02-17T11:17:19.139Z,4.18
2017-02-17T11:18:29.846Z,4.56
2017-02-17T11:19:40.152Z,4.63
2017-02-17T11:20:50.487Z,4.95
2017-02-17T11:22:01.192Z,5.23
2017-02-17T11:23:11.530Z,5.43
2017-02-17T11:24:22.246Z,5.62
2017-02-17T11:25:32.973Z,5.76
2017-02-17T11:26:43.677Z,6.09
2017-02-17T11:27:54.396Z,6.38
2017-02-17T11:29:05.099Z,6.62
2017-02-17T11:30:15.417Z,6.78
2017-02-17T11:31:26.157Z,6.95
2017-02-17T11:32:36.874Z,6.89
2017-02-17T11:33:47.585Z,6.72
2017-02-17T11:34:57.499Z,6.29
2017-02-17T11:36:07.838Z,6.13
2017-02-17T11:37:18.160Z,5.87
2017-02-17T11:38:28.474Z,5.4
2017-02-17T11:39:39.221Z,5.28
2017-02-17T11:40:49.925Z,5.47
2017-02-17T11:42:00.633Z,5
2017-02-17T11:43:10.562Z,4.79
2017-02-17T11:44:21.289Z,4.79
2017-02-17T11:45:31.623Z,5.04
2017-02-17T11:46:42.357Z,5.19
2017-02-17T11:47:53.086Z,5.31
2017-02-17T11:49:03.439Z,5.34
2017-02-17T11:50:13.755Z,5.62
2017-02-17T11:51:24.480Z,5.31
2017-02-17T11:52:34.816Z,5.25
2017-02-17T11:53:45.553Z,4.98
2017-02-17T11:54:56.281Z,5.02
2017-02-17T11:56:06.621Z,5.46
2017-02-17T11:57:16.987Z,5.62
2017-02-17T11:58:27.698Z,5.79
2017-02-17T11:59:38.407Z,6.31
2017-02-17T12:00:49.123Z,6.77
2017-02-17T12:01:59.848Z,7.14
2017-02-17T12:03:10.578Z,7.72
2017-02-17T12:04:21.309Z,8.14
2017-02-17T12:05:32.030Z,8.46
2017-02-17T12:06:42.819Z,8.87
2017-02-17T12:07:53.570Z,9.11
2017-02-17T12:09:04.293Z,9.37
2017-02-17T12:10:15.023Z,9.54
2017-02-17T12:11:25.778Z,9.87
2017-02-17T12:12:36.126Z,10.28
2017-02-17T12:13:46.851Z,10.59
2017-02-17T12:14:57.571Z,10.76
2017-02-17T12:16:08.307Z,11.02
2017-02-17T12:17:19.018Z,11.2
2017-02-17T12:18:29.739Z,11.33
2017-02-17T12:19:40.464Z,11.18
2017-02-17T12:20:51.189Z,11
2017-02-17T12:22:01.907Z,11
2017-02-17T12:23:12.648Z,11.01
2017-02-17T12:24:22.980Z,11.25
2017-02-17T12:25:33.737Z,11.65
2017-02-17T12:26:44.469Z,11.83
2017-02-17T12:27:55.193Z,12.25
2017-02-17T12:29:05.909Z,11.81
2017-02-17T12:30:16.630Z,11.26
2017-02-17T12:31:27.347Z,11
2017-02-17T12:32:38.073Z,10.49
2017-02-17T12:33:48.786Z,10.3
2017-02-17T12:34:59.511Z,10.83
2017-02-17T12:36:09.840Z,11.1
2017-02-17T12:37:20.703Z,10.9
2017-02-17T12:38:31.431Z,10.58
2017-02-17T12:39:42.155Z,10.53
2017-02-17T12:40:52.515Z,10.51
2017-02-17T12:42:03.247Z,10.38
2017-02-17T12:43:13.197Z,10.57
2017-02-17T12:44:23.518Z,11.16
2017-02-17T12:45:34.225Z,11.55
2017-02-17T12:46:44.969Z,11.53
2017-02-17T12:47:55.690Z,11.53
2017-02-17T12:49:05.226Z,11.27
2017-02-17T12:50:15.940Z,11.25
2017-02-17T12:51:26.687Z,11.67
2017-02-17T12:52:37.414Z,11.85
2017-02-17T12:53:48.130Z,12.2
2017-02-17T12:54:58.865Z,12.61
2017-02-17T12:56:09.182Z,12.63
2017-02-17T12:57:19.510Z,12.76
2017-02-17T12:58:30.243Z,12.9
2017-02-17T12:59:40.993Z,13.05
2017-02-17T13:00:51.735Z,13.4
2017-02-17T13:02:02.461Z,13.83
2017-02-17T13:03:12.788Z,14.04
2017-02-17T13:04:23.502Z,13.98
2017-02-17T13:05:34.227Z,13.27
2017-02-17T13:06:44.570Z,12.87
2017-02-17T13:07:55.310Z,12.66
2017-02-17T13:09:06.027Z,12.54
2017-02-17T13:10:16.363Z,13.27
2017-02-17T13:11:27.110Z,13.58
2017-02-17T13:12:37.824Z,13.36
2017-02-17T13:13:48.557Z,12.9
2017-02-17T13:14:59.267Z,12.84
2017-02-17T13:16:10.003Z,13.01
2017-02-17T13:17:20.722Z,12.91
2017-02-17T13:18:31.432Z,13.08
2017-02-17T13:19:42.168Z,13.26
2017-02-17T13:20:52.895Z,13.37
2017-02-17T13:22:03.622Z,12.78
2017-02-17T13:23:14.366Z,12.26
2017-02-17T13:24:25.092Z,12.36
2017-02-17T13:25:35.813Z,12.18
2017-02-17T13:26:46.544Z,11.73
2017-02-17T13:27:56.878Z,11.05
2017-02-17T13:29:07.608Z,10.58
2017-02-17T13:30:18.353Z,10.58
2017-02-17T13:31:29.418Z,10.58
2017-02-17T13:32:40.334Z,10.62
2017-02-17T13:33:51.522Z,10.58
2017-02-17T13:35:02.550Z,10.51
2017-02-17T13:36:13.395Z,10.2
2017-02-17T13:37:24.491Z,9.55
2017-02-17T13:38:35.659Z,9.3
2017-02-17T13:39:46.509Z,9.34
2017-02-17T13:40:57.723Z,9.51
2017-02-17T13:42:08.386Z,9.45
2017-02-17T13:43:19.181Z,9.47
2017-02-17T13:44:30.502Z,9.26
2017-02-17T13:45:41.460Z,9.24
2017-02-17T13:46:52.399Z,9.13
2017-02-17T13:48:03.371Z,8.96
2017-02-17T13:49:12.626Z,8.86
2017-02-17T13:50:23.427Z,8.81
2017-02-17T13:51:34.265Z,8.84
2017-02-17T13:52:45.086Z,8.78
2017-02-17T13:53:55.873Z,8.72
2017-02-17T13:55:05.784Z,8.79
2017-02-17T13:56:16.495Z,8.96
2017-02-17T13:57:27.221Z,8.99
2017-02-17T13:58:37.953Z,9
2017-02-17T13:59:48.659Z,8.75
2017-02-17T14:00:59.374Z,8.61
2017-02-17T14:02:09.705Z,8.52
2017-02-17T14:03:20.428Z,8.36
2017-02-17T14:04:30.744Z,8.26
2017-02-17T14:05:41.473Z,8.03
2017-02-17T14:06:52.239Z,7.99
2017-02-17T14:08:02.956Z,7.84
2017-02-17T14:09:13.274Z,7.72
2017-02-17T14:10:23.204Z,7.61
2017-02-17T14:11:33.904Z,7.39
2017-02-17T14:12:44.613Z,7.15
2017-02-17T14:13:54.950Z,7.13
2017-02-17T14:15:05.267Z,6.78
2017-02-17T14:16:15.571Z,6.52
2017-02-17T14:17:26.291Z,6.17
2017-02-17T14:18:37.011Z,5.92
2017-02-17T14:19:47.739Z,5.62
2017-02-17T14:20:58.451Z,5.55
2017-02-17T14:22:08.753Z,5.33
2017-02-17T14:23:19.085Z,5.08
2017-02-17T14:24:29.808Z,4.89
2017-02-17T14:25:40.513Z,4.67
2017-02-17T14:26:50.824Z,4.5
2017-02-17T14:28:01.535Z,4.52
2017-02-17T14:29:12.240Z,4.5
2017-02-17T14:30:22.574Z,4.5
2017-02-17T14:31:33.284Z,4.39
2017-02-17T14:32:43.592Z,4.25
2017-02-17T14:33:54.289Z,4.12
2017-02-17T14:35:05.007Z,4.1
2017-02-17T14:36:15.344Z,4.04
2017-02-17T14:37:25.664Z,3.92
2017-02-17T14:38:36.373Z,3.67
2017-02-17T14:39:46.688Z,3.67
2017-02-17T14:40:57.392Z,3.55
2017-02-17T14:42:07.726Z,3.46
2017-02-17T14:43:18.448Z,3.41
2017-02-17T14:44:29.157Z,3.19
2017-02-17T14:45:39.874Z,3.31
2017-02-17T14:46:50.198Z,3.19
2017-02-17T14:48:00.901Z,3.15
2017-02-17T14:49:11.234Z,3.15
2017-02-17T14:50:21.970Z,2.88
2017-02-17T14:51:32.685Z,2.7
2017-02-17T14:52:43.396Z,2.51
2017-02-17T14:53:53.705Z,2.43
2017-02-17T14:55:04.024Z,2.52
2017-02-17T14:56:14.748Z,2.51
2017-02-17T14:57:25.467Z,2.47
2017-02-17T14:58:36.201Z,2.61
2017-02-17T14:59:46.923Z,2.5
2017-02-17T15:00:57.228Z,2.51
2017-02-17T15:02:07.936Z,2.52
2017-02-17T15:03:18.640Z,2.52
2017-02-17T15:04:28.947Z,1.88
2017-02-17T15:05:39.276Z,1.57
2017-02-17T15:06:50.008Z,1.09
2017-02-17T15:08:00.311Z,0.86
2017-02-17T15:09:11.029Z,0.77
2017-02-17T15:10:21.339Z,0.73
2017-02-17T15:11:32.054Z,0.58
2017-02-17T15:12:42.790Z,0.4
2017-02-17T15:13:53.505Z,0.12
2017-02-17T15:15:04.201Z,0.06
2017-02-17T15:16:14.512Z,-0.02
2017-02-17T15:17:25.247Z,-0.17
2017-02-17T15:18:35.962Z,-0.45